Time;durP1;ratioP1;P1;durP2;ratioP2;P2;SDS_P1;SDS_P2;PMS_P1;PMS_P2;Temp;Humidity;BMP_temperature;BMP_pressure;BME280_temperature;BME280_humidity;BME280_pressure;Samples;Min_cycle;Max_cycle;Signal;HPM_P1;HPM_P2
2023/12/19 00:00:28;;;;;;;13.00;7.70;;;;;;;-1.40;100.00;98531.53;5001415;28;20065;-59
2023/12/19 00:02:58;;;;;;;14.93;7.88;;;;;;;-1.48;100.00;98523.44;4999139;28;20045;-59
2023/12/19 00:05:24;;;;;;;11.43;6.13;;;;;;;-1.54;100.00;98498.31;4999101;28;20043;-59
2023/12/19 00:07:51;;;;;;;11.93;7.18;;;;;;;-1.23;100.00;98508.66;5003725;28;20425;-59
2023/12/19 00:10:17;;;;;;;14.32;7.97;;;;;;;-1.06;100.00;98498.22;5002421;28;20040;-59
2023/12/19 00:12:44;;;;;;;10.48;6.95;;;;;;;-0.82;100.00;98500.31;5003100;28;20088;-59
2023/12/19 00:15:11;;;;;;;9.35;6.00;;;;;;;-0.78;100.00;98498.16;5002287;28;20450;-59
2023/12/19 00:17:39;;;;;;;10.05;6.10;;;;;;;-0.76;100.00;98490.03;4996856;28;20038;-59
2023/12/19 00:20:06;;;;;;;10.02;6.70;;;;;;;-0.83;100.00;98479.19;4997026;28;20088;-59
2023/12/19 00:22:33;;;;;;;9.93;6.53;;;;;;;-0.94;100.00;98459.81;4997569;28;20477;-59
2023/12/19 00:24:59;;;;;;;10.88;6.30;;;;;;;-0.92;100.00;98452.50;5000049;28;20107;-59
2023/12/19 00:27:26;;;;;;;12.93;6.82;;;;;;;-0.90;100.00;98435.56;4998695;28;20401;-59
2023/12/19 00:29:52;;;;;;;9.63;6.25;;;;;;;-0.85;100.00;98433.31;5001672;28;20042;-59
2023/12/19 00:32:19;;;;;;;11.70;6.13;;;;;;;-0.90;100.00;98425.75;5003476;28;20133;-59
2023/12/19 00:34:45;;;;;;;11.65;6.72;;;;;;;-0.94;100.00;98429.72;4993914;28;20042;-59
2023/12/19 00:37:13;;;;;;;10.07;5.97;;;;;;;-0.98;100.00;98425.69;5001262;28;20041;-59
2023/12/19 00:39:40;;;;;;;9.98;5.85;;;;;;;-1.00;100.00;98430.34;5002444;28;20049;-59
2023/12/19 00:42:07;;;;;;;8.82;5.32;;;;;;;-1.08;100.00;98425.75;4998839;28;20097;-58
2023/12/19 00:44:36;;;;;;;9.57;5.65;;;;;;;-1.20;100.00;98425.13;5003072;28;20061;-59
2023/12/19 00:47:03;;;;;;;9.85;5.82;;;;;;;-1.09;100.00;98427.59;4995477;28;20046;-59
2023/12/19 00:49:30;;;;;;;9.20;5.57;;;;;;;-1.23;100.00;98428.94;5002553;28;20092;-59
2023/12/19 00:51:57;;;;;;;10.07;5.28;;;;;;;-1.13;100.00;98425.38;4999419;28;20046;-58
2023/12/19 00:54:23;;;;;;;11.13;6.50;;;;;;;-1.15;100.00;98433.50;5001655;28;20473;-59
2023/12/19 00:56:50;;;;;;;10.63;5.82;;;;;;;-1.14;100.00;98423.72;5003171;28;20536;-59
2023/12/19 00:59:16;;;;;;;9.02;5.28;;;;;;;-1.15;100.00;98422.88;5000423;28;20045;-59
2023/12/19 01:01:43;;;;;;;8.23;4.93;;;;;;;-1.22;100.00;98421.81;5002308;28;20113;-59
2023/12/19 01:04:10;;;;;;;12.32;5.40;;;;;;;-1.25;100.00;98422.91;5001311;28;20520;-57
2023/12/19 01:06:37;;;;;;;8.63;5.72;;;;;;;-1.33;100.00;98429.00;4999653;28;20045;-59
2023/12/19 01:09:05;;;;;;;10.40;6.60;;;;;;;-1.42;100.00;98421.06;4997242;28;20676;-58
2023/12/19 01:11:32;;;;;;;9.40;5.55;;;;;;;-1.50;100.00;98420.00;4998816;28;20038;-59
2023/12/19 01:13:58;;;;;;;10.23;5.18;;;;;;;-1.53;100.00;98424.78;4999936;28;20054;-59
2023/12/19 01:16:25;;;;;;;8.85;5.95;;;;;;;-1.52;100.00;98427.28;4994491;28;20042;-59
2023/12/19 01:18:52;;;;;;;9.35;5.30;;;;;;;-1.48;100.00;98427.81;4999874;28;20048;-59
2023/12/19 01:21:18;;;;;;;8.93;5.15;;;;;;;-1.51;100.00;98422.81;4995617;28;20109;-59
2023/12/19 01:23:45;;;;;;;9.32;5.22;;;;;;;-1.53;100.00;98424.78;4994647;28;20041;-59
2023/12/19 01:26:11;;;;;;;7.90;5.03;;;;;;;-1.62;100.00;98429.16;4999797;28;20034;-59
2023/12/19 01:28:49;;;;;;;10.73;4.93;;;;;;;-1.68;100.00;98435.06;4999758;28;20042;-59
2023/12/19 01:31:16;;;;;;;10.35;5.18;;;;;;;-1.71;100.00;98441.50;4998069;28;20724;-59
2023/12/19 01:33:42;;;;;;;10.93;5.30;;;;;;;-1.74;100.00;98441.78;4994064;28;20049;-59
2023/12/19 01:36:10;;;;;;;8.05;4.78;;;;;;;-1.64;100.00;98442.59;4998141;28;20053;-59
2023/12/19 01:38:36;;;;;;;7.47;4.10;;;;;;;-1.75;100.00;98437.47;5000410;28;20066;-59
2023/12/19 01:41:03;;;;;;;7.53;4.70;;;;;;;-1.85;100.00;98441.00;5003973;28;20844;-57
2023/12/19 01:43:30;;;;;;;9.18;5.05;;;;;;;-2.10;100.00;98424.72;4996268;28;20708;-59
2023/12/19 01:45:57;;;;;;;8.77;4.50;;;;;;;-2.02;100.00;98417.88;4999427;28;20050;-58
2023/12/19 01:48:26;;;;;;;8.60;5.13;;;;;;;-1.94;100.00;98417.13;5001435;28;20661;-59
2023/12/19 01:50:53;;;;;;;7.30;4.78;;;;;;;-1.91;100.00;98412.38;4994819;28;20049;-59
2023/12/19 01:53:22;;;;;;;8.25;4.30;;;;;;;-1.82;100.00;98413.31;5001512;28;20245;-59
2023/12/19 01:55:51;;;;;;;7.97;4.82;;;;;;;-1.75;100.00;98434.81;5000397;28;20617;-59
2023/12/19 01:58:20;;;;;;;7.15;4.60;;;;;;;-1.66;100.00;98449.03;4996091;28;20129;-59
2023/12/19 02:00:46;;;;;;;8.50;4.57;;;;;;;-1.74;100.00;98445.28;4999731;28;20045;-59
2023/12/19 02:03:13;;;;;;;9.85;4.70;;;;;;;-1.94;100.00;98439.22;5001749;28;20037;-58
2023/12/19 02:05:43;;;;;;;9.18;4.25;;;;;;;-2.05;100.00;98440.22;4997472;28;20132;-59
2023/12/19 02:08:10;;;;;;;5.82;3.58;;;;;;;-2.14;100.00;98446.41;5002163;28;20041;-59
2023/12/19 02:10:37;;;;;;;6.90;4.07;;;;;;;-2.22;100.00;98432.03;5006169;28;20470;-58
2023/12/19 02:13:03;;;;;;;8.18;4.75;;;;;;;-2.31;100.00;98438.19;5004652;28;20052;-58
2023/12/19 02:15:30;;;;;;;7.10;4.45;;;;;;;-2.36;100.00;98432.50;5005502;28;20512;-58
2023/12/19 02:17:57;;;;;;;8.80;4.78;;;;;;;-2.29;100.00;98433.56;4991757;28;20413;-59
2023/12/19 02:20:23;;;;;;;7.30;3.97;;;;;;;-2.38;100.00;98423.81;5001926;28;20044;-58
2023/12/19 02:22:52;;;;;;;8.05;4.30;;;;;;;-2.62;100.00;98418.00;5004723;28;20050;-59
2023/12/19 02:25:20;;;;;;;8.10;4.20;;;;;;;-2.52;100.00;98435.72;5003573;28;20042;-59
2023/12/19 02:27:46;;;;;;;6.70;3.92;;;;;;;-2.51;100.00;98432.09;4999055;28;20046;-59
2023/12/19 02:30:13;;;;;;;8.30;4.00;;;;;;;-2.76;100.00;98424.56;5006182;28;20100;-59
2023/12/19 02:32:41;;;;;;;7.55;4.47;;;;;;;-2.79;100.00;98408.09;5000495;28;20046;-58
2023/12/19 02:35:08;;;;;;;6.78;3.65;;;;;;;-2.67;100.00;98399.03;4996118;28;20525;-59
2023/12/19 02:37:34;;;;;;;7.10;4.35;;;;;;;-2.42;100.00;98398.56;4995139;28;20128;-59
2023/12/19 02:40:01;;;;;;;8.68;3.88;;;;;;;-2.22;100.00;98400.19;5004831;28;20664;-57
2023/12/19 02:42:27;;;;;;;7.55;3.63;;;;;;;-2.21;100.00;98401.03;5001871;28;20038;-59
2023/12/19 02:44:54;;;;;;;8.43;3.70;;;;;;;-2.45;100.00;98393.53;5005598;28;20042;-58
2023/12/19 02:47:21;;;;;;;6.47;3.80;;;;;;;-2.54;100.00;98396.06;5002138;28;20042;-59
2023/12/19 02:49:48;;;;;;;6.93;3.60;;;;;;;-2.46;100.00;98405.13;5000412;28;20054;-59
2023/12/19 02:52:14;;;;;;;6.43;3.47;;;;;;;-2.52;100.00;98398.56;5002416;28;20026;-59
2023/12/19 02:54:41;;;;;;;6.45;3.50;;;;;;;-2.64;100.00;98406.72;4997097;28;20050;-59
2023/12/19 02:57:07;;;;;;;6.85;3.85;;;;;;;-2.68;100.00;98415.06;5006017;28;20120;-59
2023/12/19 02:59:34;;;;;;;6.93;4.20;;;;;;;-2.83;100.00;98402.25;4999689;28;20042;-59
2023/12/19 03:02:00;;;;;;;6.05;2.97;;;;;;;-2.79;100.00;98400.16;5000009;28;20058;-58
2023/12/19 03:04:27;;;;;;;8.07;3.97;;;;;;;-2.84;100.00;98408.53;4999018;28;20065;-58
2023/12/19 03:06:54;;;;;;;6.68;3.60;;;;;;;-2.73;100.00;98423.44;4997066;28;20042;-59
2023/12/19 03:09:20;;;;;;;4.90;2.88;;;;;;;-2.82;100.00;98413.69;5001526;28;20049;-59
2023/12/19 03:12:16;;;;;;;6.78;3.95;;;;;;;-3.04;100.00;98411.19;5003710;28;20424;-59
2023/12/19 03:14:43;;;;;;;6.30;3.75;;;;;;;-3.13;100.00;98398.78;4998722;28;20053;-59
2023/12/19 03:17:10;;;;;;;5.43;3.15;;;;;;;-3.14;100.00;98405.03;5001559;28;20037;-59
2023/12/19 03:19:38;;;;;;;7.88;3.20;;;;;;;-3.25;100.00;98402.53;4998875;28;20035;-59
2023/12/19 03:22:05;;;;;;;6.72;3.08;;;;;;;-3.30;100.00;98387.88;5001070;28;20034;-59
2023/12/19 03:24:31;;;;;;;6.32;3.17;;;;;;;-3.20;100.00;98377.31;5003524;28;20037;-59
2023/12/19 03:26:58;;;;;;;4.95;3.00;;;;;;;-2.99;100.00;98378.13;5000565;28;20063;-58
2023/12/19 03:29:25;;;;;;;6.78;3.58;;;;;;;-2.83;100.00;98377.56;4990210;28;20109;-57
2023/12/19 03:31:51;;;;;;;4.57;2.67;;;;;;;-2.73;100.00;98372.25;5003704;28;20038;-58
2023/12/19 03:34:18;;;;;;;5.05;2.85;;;;;;;-2.72;100.00;98376.56;4998104;28;20490;-57
2023/12/19 03:36:44;;;;;;;7.70;3.53;;;;;;;-2.72;100.00;98374.75;4994812;28;20042;-59
2023/12/19 03:39:11;;;;;;;7.10;2.92;;;;;;;-2.64;100.00;98356.34;4994756;28;20046;-59
2023/12/19 03:41:38;;;;;;;5.95;3.28;;;;;;;-2.66;100.00;98347.66;5001936;28;20065;-59
2023/12/19 03:44:04;;;;;;;6.45;3.25;;;;;;;-2.95;100.00;98353.03;4997533;28;20120;-59
2023/12/19 03:46:31;;;;;;;5.18;2.97;;;;;;;-2.92;100.00;98350.91;5002352;28;20038;-59
2023/12/19 03:48:57;;;;;;;5.57;3.28;;;;;;;-2.92;100.00;98350.06;4997494;28;20050;-59
2023/12/19 03:51:24;;;;;;;5.32;3.22;;;;;;;-2.79;100.00;98340.03;4995090;28;20042;-59
2023/12/19 03:53:51;;;;;;;6.28;3.50;;;;;;;-2.72;100.00;98348.25;4997655;28;20105;-59
2023/12/19 03:56:17;;;;;;;9.35;3.83;;;;;;;-2.76;100.00;98338.91;4998938;28;20131;-59
2023/12/19 03:58:44;;;;;;;7.22;3.63;;;;;;;-2.65;100.00;98316.69;4997345;28;20034;-59
2023/12/19 04:01:11;;;;;;;6.95;3.22;;;;;;;-2.44;100.00;98313.00;5004827;28;20045;-59
2023/12/19 04:03:38;;;;;;;7.45;3.58;;;;;;;-2.32;100.00;98327.75;4993633;28;20080;-59
2023/12/19 04:06:05;;;;;;;7.47;3.83;;;;;;;-2.40;100.00;98322.34;4993296;28;20038;-59
2023/12/19 04:08:31;;;;;;;9.70;4.43;;;;;;;-2.42;100.00;98332.25;4998332;28;20042;-59
2023/12/19 04:10:58;;;;;;;8.50;4.05;;;;;;;-2.51;100.00;98321.53;5003413;28;20800;-59
2023/12/19 04:13:24;;;;;;;9.50;3.60;;;;;;;-2.51;100.00;98320.72;5002061;28;20037;-59
2023/12/19 04:15:51;;;;;;;6.88;2.92;;;;;;;-2.44;100.00;98315.66;5001004;28;20117;-59
2023/12/19 04:18:18;;;;;;;7.30;2.92;;;;;;;-2.49;100.00;98316.94;4995947;28;20040;-59
2023/12/19 04:20:44;;;;;;;5.57;2.72;;;;;;;-2.46;100.00;98323.75;5004364;28;20042;-59
2023/12/19 04:23:12;;;;;;;6.18;2.90;;;;;;;-2.54;100.00;98319.16;5003972;28;20050;-59
2023/12/19 04:25:38;;;;;;;6.30;3.17;;;;;;;-2.73;100.00;98316.56;4998817;28;20072;-58
2023/12/19 04:28:05;;;;;;;5.57;2.92;;;;;;;-2.83;100.00;98312.13;4998596;28;20485;-60
2023/12/19 04:30:31;;;;;;;5.75;3.05;;;;;;;-2.80;100.00;98308.34;4999615;28;20128;-59
2023/12/19 04:32:58;;;;;;;6.47;2.80;;;;;;;-3.00;100.00;98321.63;5003453;28;20099;-58
2023/12/19 04:35:25;;;;;;;5.43;2.92;;;;;;;-3.04;100.00;98334.34;5001029;28;20046;-59
2023/12/19 04:37:52;;;;;;;6.25;3.15;;;;;;;-3.01;100.00;98331.41;4998464;28;20033;-59
2023/12/19 04:40:18;;;;;;;6.82;3.15;;;;;;;-3.06;100.00;98325.69;4996947;28;20039;-59
2023/12/19 04:42:45;;;;;;;5.80;3.28;;;;;;;-3.10;100.00;98316.34;5001389;28;20044;-59
2023/12/19 04:45:12;;;;;;;6.82;3.25;;;;;;;-2.94;100.00;98323.75;4998174;28;20046;-59
2023/12/19 04:47:39;;;;;;;5.72;2.22;;;;;;;-3.03;100.00;98317.47;4999199;28;20137;-59
2023/12/19 04:50:08;;;;;;;5.43;2.70;;;;;;;-3.08;100.00;98308.25;5002271;28;20057;-59
2023/12/19 04:52:35;;;;;;;4.43;2.38;;;;;;;-3.11;100.00;98298.78;4999800;28;20042;-59
2023/12/19 04:55:01;;;;;;;5.10;2.65;;;;;;;-3.00;100.00;98300.44;4998466;28;20549;-59
2023/12/19 04:57:28;;;;;;;5.53;2.90;;;;;;;-3.03;100.00;98276.88;4997148;28;20037;-59
2023/12/19 04:59:55;;;;;;;6.25;2.92;;;;;;;-3.17;100.00;98284.28;4993281;28;20045;-59
2023/12/19 05:02:21;;;;;;;9.88;2.80;;;;;;;-3.15;100.00;98292.09;4998802;28;20042;-59
2023/12/19 05:04:48;;;;;;;7.60;3.45;;;;;;;-3.21;100.00;98285.53;4994852;28;20038;-59
2023/12/19 05:07:14;;;;;;;6.00;2.90;;;;;;;-3.12;100.00;98283.88;4998525;28;20052;-59
2023/12/19 05:09:41;;;;;;;8.45;4.95;;;;;;;-3.06;100.00;98267.38;5002421;28;20049;-59
2023/12/19 05:12:08;;;;;;;5.97;3.50;;;;;;;-2.90;100.00;98260.66;5000675;28;20113;-59
2023/12/19 05:14:34;;;;;;;7.47;3.20;;;;;;;-2.80;100.00;98272.06;5000843;28;20397;-59
2023/12/19 05:17:03;;;;;;;4.72;2.72;;;;;;;-2.81;100.00;98298.72;5002275;28;20054;-59
2023/12/19 05:19:30;;;;;;;8.23;3.55;;;;;;;-2.88;100.00;98267.50;4996022;28;20048;-59
2023/12/19 05:21:57;;;;;;;4.57;2.67;;;;;;;-2.89;100.00;98262.34;4997247;28;20046;-59
2023/12/19 05:24:23;;;;;;;5.97;3.80;;;;;;;-2.96;100.00;98274.47;4999480;28;20082;-59
2023/12/19 05:26:50;;;;;;;8.07;4.50;;;;;;;-2.97;100.00;98265.72;5003222;28;20041;-59
2023/12/19 05:29:16;;;;;;;10.43;6.50;;;;;;;-3.09;100.00;98262.41;4994797;28;20514;-59
2023/12/19 05:31:43;;;;;;;10.00;5.47;;;;;;;-3.30;100.00;98265.19;4996629;28;20065;-59
2023/12/19 05:34:09;;;;;;;6.10;2.83;;;;;;;-3.25;100.00;98267.44;5001481;28;20132;-59
2023/12/19 05:36:37;;;;;;;6.07;3.03;;;;;;;-3.28;100.00;98272.03;4997815;28;20042;-59
2023/12/19 05:39:07;;;;;;;6.13;3.50;;;;;;;-3.30;100.00;98259.91;5000631;28;20045;-59
2023/12/19 05:41:34;;;;;;;5.32;2.83;;;;;;;-3.33;100.00;98260.16;5002509;28;20046;-59
2023/12/19 05:44:00;;;;;;;4.90;2.50;;;;;;;-3.35;100.00;98252.41;5005350;28;20070;-58
2023/12/19 05:46:28;;;;;;;5.43;2.70;;;;;;;-3.37;100.00;98256.97;5004790;28;20049;-60
2023/12/19 05:48:55;;;;;;;9.05;4.32;;;;;;;-3.49;100.00;98255.44;5001059;28;20091;-59
2023/12/19 05:51:21;;;;;;;6.43;3.47;;;;;;;-3.53;100.00;98268.97;5005573;28;20046;-59
2023/12/19 05:53:49;;;;;;;37.45;26.13;;;;;;;-3.58;100.00;98259.78;5003377;28;20042;-59
2023/12/19 05:56:15;;;;;;;20.75;11.82;;;;;;;-3.66;100.00;98271.06;5000134;28;20034;-59
2023/12/19 05:58:44;;;;;;;23.02;14.13;;;;;;;-3.85;100.00;98262.13;4998462;28;20037;-59
2023/12/19 06:01:11;;;;;;;10.48;6.70;;;;;;;-3.86;100.00;98270.22;5001861;28;20045;-59
2023/12/19 06:03:38;;;;;;;6.22;2.92;;;;;;;-3.71;100.00;98262.69;5003209;28;20046;-59
2023/12/19 06:06:05;;;;;;;8.90;5.05;;;;;;;-3.71;100.00;98265.34;5000290;28;20052;-59
2023/12/19 06:08:31;;;;;;;8.38;4.30;;;;;;;-3.78;100.00;98265.06;5005156;28;20046;-59
2023/12/19 06:10:58;;;;;;;8.13;4.10;;;;;;;-3.78;100.00;98283.59;5002162;28;20050;-57
2023/12/19 06:13:25;;;;;;;6.15;3.35;;;;;;;-3.76;100.00;98297.50;5005688;28;20033;-58
2023/12/19 06:15:52;;;;;;;10.68;5.18;;;;;;;-3.86;100.00;98291.38;5005197;28;20731;-58
2023/12/19 06:18:19;;;;;;;9.85;5.10;;;;;;;-4.04;100.00;98299.97;4997523;28;20034;-59
2023/12/19 06:20:46;;;;;;;8.82;4.25;;;;;;;-4.07;100.00;98313.47;5002467;28;20112;-59
2023/12/19 06:23:12;;;;;;;16.65;7.85;;;;;;;-4.20;100.00;98306.59;5004811;28;20081;-58
2023/12/19 06:25:39;;;;;;;24.67;11.90;;;;;;;-4.32;100.00;98311.16;5001210;28;20050;-59
2023/12/19 06:28:06;;;;;;;17.92;6.88;;;;;;;-4.33;100.00;98309.50;5006116;28;20096;-59
2023/12/19 06:30:33;;;;;;;32.33;16.17;;;;;;;-4.39;100.00;98314.47;5000419;28;20084;-59
2023/12/19 06:33:04;;;;;;;14.27;8.00;;;;;;;-4.32;100.00;98321.75;5001868;28;20045;-59
2023/12/19 06:35:31;;;;;;;10.27;6.47;;;;;;;-4.37;100.00;98325.75;5005417;28;20096;-60
2023/12/19 06:37:57;;;;;;;15.30;7.22;;;;;;;-4.33;100.00;98328.00;5005395;28;20088;-59
2023/12/19 06:40:24;;;;;;;38.13;19.77;;;;;;;-4.39;100.00;98325.88;5000376;28;20058;-60
2023/12/19 06:42:51;;;;;;;30.63;14.93;;;;;;;-4.53;100.00;98321.81;5001126;28;20545;-60
2023/12/19 06:45:18;;;;;;;17.85;8.70;;;;;;;-4.54;100.00;98309.53;4998662;28;20077;-60
2023/12/19 06:47:45;;;;;;;7.82;4.05;;;;;;;-4.45;100.00;98298.16;4994867;28;20441;-60
2023/12/19 06:50:12;;;;;;;9.23;5.57;;;;;;;-4.35;100.00;98287.63;5003927;28;20448;-60
2023/12/19 06:52:39;;;;;;;10.55;5.75;;;;;;;-4.26;100.00;98278.06;5002631;28;20569;-59
2023/12/19 06:55:05;;;;;;;10.98;6.47;;;;;;;-4.15;100.00;98268.34;4998163;28;20559;-59
2023/12/19 06:57:35;;;;;;;18.48;9.93;;;;;;;-4.11;100.00;98267.09;4999027;28;20128;-60
2023/12/19 07:00:02;;;;;;;7.55;4.05;;;;;;;-3.89;100.00;98270.47;5000117;28;20057;-60
2023/12/19 07:02:29;;;;;;;26.42;14.35;;;;;;;-3.81;100.00;98271.47;5003489;28;20045;-60
2023/12/19 07:04:56;;;;;;;18.83;11.02;;;;;;;-3.77;100.00;98272.03;4998978;28;20067;-60
2023/12/19 07:07:24;;;;;;;29.80;14.88;;;;;;;-3.86;100.00;98276.34;5002291;28;20046;-60
2023/12/19 07:09:50;;;;;;;14.48;9.15;;;;;;;-3.89;100.00;98281.91;5000019;28;20048;-60
2023/12/19 07:12:17;;;;;;;14.95;8.50;;;;;;;-3.79;100.00;98297.81;5004008;28;20065;-60
2023/12/19 07:14:43;;;;;;;8.65;4.30;;;;;;;-3.59;100.00;98285.41;5002847;28;20053;-59
2023/12/19 07:17:10;;;;;;;25.73;14.75;;;;;;;-3.78;100.00;98280.94;4995542;28;20050;-64
2023/12/19 07:19:36;;;;;;;51.97;28.27;;;;;;;-3.94;100.00;98286.78;4999463;28;20128;-63
2023/12/19 07:22:03;;;;;;;39.55;22.83;;;;;;;-3.89;100.00;98273.13;4999039;28;20050;-64
2023/12/19 07:24:30;;;;;;;15.07;8.23;;;;;;;-3.75;100.00;98280.69;5001038;28;20048;-63
2023/12/19 07:26:57;;;;;;;8.60;4.60;;;;;;;-3.70;100.00;98296.13;5002682;28;20041;-64
2023/12/19 07:29:24;;;;;;;8.50;5.15;;;;;;;-3.60;100.00;98296.13;4999855;28;20042;-64
2023/12/19 07:31:51;;;;;;;35.13;18.42;;;;;;;-3.95;100.00;98291.22;5001854;28;20038;-64
2023/12/19 07:34:18;;;;;;;16.17;9.10;;;;;;;-3.84;100.00;98295.56;5003316;28;20042;-64
2023/12/19 07:36:45;;;;;;;10.27;5.60;;;;;;;-3.70;100.00;98309.34;5003048;28;20065;-64
2023/12/19 07:39:12;;;;;;;9.32;5.03;;;;;;;-3.65;100.00;98301.84;4998614;28;20719;-64
2023/12/19 07:41:39;;;;;;;11.57;6.40;;;;;;;-3.71;100.00;98289.16;5002757;28;20052;-64
2023/12/19 07:44:09;;;;;;;10.73;4.97;;;;;;;-3.59;100.00;98296.00;4999073;28;20046;-63
2023/12/19 07:46:40;;;;;;;12.65;6.18;;;;;;;-3.51;100.00;98302.44;4998367;28;20057;-64
2023/12/19 07:49:07;;;;;;;12.45;5.97;;;;;;;-3.58;100.00;98295.03;5002416;28;20042;-63
2023/12/19 07:51:34;;;;;;;10.80;5.10;;;;;;;-3.62;100.00;98296.28;4998526;28;20121;-63
2023/12/19 07:54:00;;;;;;;10.05;4.85;;;;;;;-3.64;100.00;98297.38;5000786;28;20050;-64
2023/12/19 07:56:27;;;;;;;7.53;4.07;;;;;;;-3.62;100.00;98284.88;4998777;28;20042;-64
2023/12/19 07:58:53;;;;;;;9.10;4.60;;;;;;;-3.55;100.00;98284.16;5000862;28;20050;-63
2023/12/19 08:01:20;;;;;;;10.43;5.05;;;;;;;-3.54;100.00;98287.66;4999512;28;20119;-64
2023/12/19 08:03:47;;;;;;;10.10;5.85;;;;;;;-3.61;100.00;98291.81;5000442;28;20548;-64
2023/12/19 08:06:13;;;;;;;8.68;5.13;;;;;;;-3.61;100.00;98281.25;4998567;28;20053;-64
2023/12/19 08:08:40;;;;;;;11.55;5.57;;;;;;;-3.59;100.00;98289.88;4999832;28;20050;-64
2023/12/19 08:11:07;;;;;;;10.75;5.45;;;;;;;-3.49;100.00;98290.72;5002722;28;20120;-64
2023/12/19 08:13:35;;;;;;;13.88;7.88;;;;;;;-3.18;100.00;98279.97;5000621;28;20046;-64
2023/12/19 08:16:03;;;;;;;11.02;6.68;;;;;;;-3.10;100.00;98273.94;4994991;28;20058;-64
2023/12/19 08:18:30;;;;;;;12.00;6.35;;;;;;;-3.06;100.00;98272.69;4998040;28;20038;-64
2023/12/19 08:20:58;;;;;;;13.57;7.45;;;;;;;-2.93;100.00;98274.19;4995875;28;20893;-64
2023/12/19 08:23:24;;;;;;;15.88;7.18;;;;;;;-3.15;100.00;98266.44;4999471;28;20042;-64
2023/12/19 08:25:51;;;;;;;14.68;7.43;;;;;;;-3.08;100.00;98268.50;4994417;28;20045;-64
2023/12/19 08:28:17;;;;;;;13.15;7.38;;;;;;;-2.95;100.00;98278.81;5002526;28;20077;-64
2023/12/19 08:30:44;;;;;;;14.25;7.85;;;;;;;-2.82;100.00;98276.69;5001473;28;20056;-63
2023/12/19 08:33:10;;;;;;;14.82;8.52;;;;;;;-2.83;100.00;98252.97;4997434;28;20037;-64
2023/12/19 08:35:37;;;;;;;12.57;7.97;;;;;;;-2.82;100.00;98267.88;4995728;28;20050;-64
2023/12/19 08:38:05;;;;;;;15.52;9.63;;;;;;;-2.49;100.00;98260.38;5000647;28;20107;-64
2023/12/19 08:40:31;;;;;;;16.58;9.18;;;;;;;-2.18;100.00;98259.28;4996486;28;20057;-63
2023/12/19 08:42:58;;;;;;;17.75;9.65;;;;;;;-2.23;100.00;98260.56;5002080;28;20581;-63
2023/12/19 08:45:26;;;;;;;16.05;10.10;;;;;;;-2.16;100.00;98274.06;5000480;28;20042;-64
2023/12/19 08:47:54;;;;;;;21.25;11.05;;;;;;;-1.97;100.00;98262.50;5001662;28;20561;-64
2023/12/19 08:50:21;;;;;;;15.68;9.30;;;;;;;-1.90;100.00;98267.19;5002415;28;20053;-64
2023/12/19 08:52:48;;;;;;;16.95;10.02;;;;;;;-1.76;100.00;98269.34;4998675;28;20049;-63
2023/12/19 08:55:15;;;;;;;20.30;11.70;;;;;;;-1.54;100.00;98264.56;5002542;28;20042;-64
2023/12/19 08:57:42;;;;;;;17.23;10.25;;;;;;;-1.31;100.00;98248.16;4999383;28;20607;-64
2023/12/19 09:00:12;;;;;;;18.45;10.18;;;;;;;-1.28;100.00;98249.66;5001002;28;20061;-64
2023/12/19 09:02:42;;;;;;;16.05;9.65;;;;;;;-1.19;100.00;98230.13;5000240;28;20065;-63
2023/12/19 09:05:13;;;;;;;17.52;10.57;;;;;;;-1.15;100.00;98230.69;4997718;28;20061;-63
2023/12/19 09:07:41;;;;;;;16.58;9.93;;;;;;;-1.08;100.00;98227.22;5001170;28;20048;-63
2023/12/19 09:10:12;;;;;;;18.02;10.40;;;;;;;-1.03;100.00;98234.75;4999671;28;20061;-63
2023/12/19 09:12:39;;;;;;;16.02;9.18;;;;;;;-0.95;100.00;98221.47;5001213;28;20038;-63
2023/12/19 09:15:06;;;;;;;15.27;8.90;;;;;;;-0.94;100.00;98220.50;5001520;28;20077;-63
2023/12/19 09:17:33;;;;;;;16.00;9.43;;;;;;;-0.97;100.00;98218.16;5003067;28;20056;-63
2023/12/19 09:20:04;;;;;;;17.95;10.40;;;;;;;-0.85;100.00;98215.25;5000108;28;20128;-64
2023/12/19 09:22:32;;;;;;;15.98;9.75;;;;;;;-0.81;100.00;98205.97;4998977;28;20049;-59
2023/12/19 09:24:58;;;;;;;16.08;10.18;;;;;;;-0.84;100.00;98208.94;4999904;28;20514;-61
2023/12/19 09:27:26;;;;;;;18.58;10.73;;;;;;;-0.84;100.00;98214.25;5002200;28;20053;-62
2023/12/19 09:29:53;;;;;;;17.23;9.90;;;;;;;-0.68;100.00;98203.69;4999071;28;20053;-62
2023/12/19 09:32:21;;;;;;;16.45;9.38;;;;;;;-0.60;100.00;98205.56;4995004;28;20069;-65
2023/12/19 09:34:47;;;;;;;16.70;9.57;;;;;;;-0.53;100.00;98213.72;5001859;28;20046;-63
2023/12/19 09:37:14;;;;;;;20.80;10.43;;;;;;;-0.45;100.00;98219.09;5003336;28;20599;-63
2023/12/19 09:39:45;;;;;;;23.17;10.50;;;;;;;-0.33;100.00;98222.28;4999913;28;20053;-64
2023/12/19 09:42:12;;;;;;;18.57;10.90;;;;;;;-0.31;100.00;98230.09;4996574;28;20121;-61
2023/12/19 09:44:40;;;;;;;18.48;10.10;;;;;;;-0.32;100.00;98231.09;4995182;28;20060;-60
2023/12/19 09:47:07;;;;;;;19.50;10.15;;;;;;;-0.29;100.00;98236.94;4996894;28;20038;-65
2023/12/19 09:49:39;;;;;;;17.15;10.13;;;;;;;-0.34;100.00;98236.59;4998071;28;20081;-65
2023/12/19 09:52:09;;;;;;;15.27;9.30;;;;;;;-0.36;100.00;98222.63;4996528;28;20046;-64
2023/12/19 09:54:36;;;;;;;18.38;10.93;;;;;;;-0.42;100.00;98237.41;4999968;28;20050;-64
2023/12/19 09:57:06;;;;;;;16.92;10.07;;;;;;;-0.51;100.00;98216.22;5002295;28;20425;-66
2023/12/19 09:59:35;;;;;;;19.25;10.15;;;;;;;-0.58;100.00;98210.72;5002118;28;20113;-66
2023/12/19 10:02:08;;;;;;;16.10;8.57;;;;;;;-0.73;100.00;98211.31;5002681;28;20042;-64
2023/12/19 10:04:34;;;;;;;17.73;10.27;;;;;;;-0.68;100.00;98200.19;5002365;28;20052;-64
2023/12/19 10:07:01;;;;;;;16.48;10.20;;;;;;;-0.67;100.00;98196.53;5003142;28;20468;-61
2023/12/19 10:09:28;;;;;;;16.08;8.75;;;;;;;-0.63;100.00;98197.88;5000133;28;20529;-64
2023/12/19 10:12:09;;;;;;;18.95;10.82;;;;;;;-0.57;100.00;98207.06;4999550;28;20054;-63
2023/12/19 10:14:36;;;;;;;20.52;11.32;;;;;;;-0.59;100.00;98214.38;5001033;28;20046;-67
2023/12/19 10:17:05;;;;;;;15.35;10.20;;;;;;;-0.68;100.00;98200.19;5003038;28;20060;-61
2023/12/19 10:19:38;;;;;;;18.65;10.55;;;;;;;-0.63;100.00;98200.53;5003523;28;20121;-62
2023/12/19 10:22:06;;;;;;;18.67;10.77;;;;;;;-0.67;100.00;98209.84;5004286;28;20096;-63
2023/12/19 10:24:33;;;;;;;18.35;11.00;;;;;;;-0.60;100.00;98199.38;5001354;28;20786;-63
2023/12/19 10:27:01;;;;;;;17.50;11.05;;;;;;;-0.57;100.00;98205.25;4998488;28;20112;-65
2023/12/19 10:29:35;;;;;;;19.00;11.05;;;;;;;-0.57;100.00;98188.44;5002264;28;20399;-66
2023/12/19 10:32:22;;;;;;;18.85;10.15;;;;;;;-0.59;100.00;98188.59;5000420;28;20542;-66
2023/12/19 10:34:57;;;;;;;16.08;10.40;;;;;;;-0.53;100.00;98182.66;4994871;28;20112;-65
2023/12/19 10:37:27;;;;;;;17.65;10.55;;;;;;;-0.49;100.00;98171.66;4994967;28;20045;-65
2023/12/19 10:40:09;;;;;;;19.10;11.50;;;;;;;-0.48;100.00;98162.72;5001747;28;20100;-63
2023/12/19 10:42:37;;;;;;;24.92;12.35;;;;;;;-0.45;100.00;98152.56;5001585;28;20117;-65
2023/12/19 10:45:05;;;;;;;21.33;11.55;;;;;;;-0.50;100.00;98148.72;4999010;28;20050;-61
2023/12/19 10:47:32;;;;;;;17.65;10.35;;;;;;;-0.46;100.00;98142.94;5004392;28;20041;-62
2023/12/19 10:49:59;;;;;;;16.63;10.77;;;;;;;-0.33;100.00;98145.09;5001951;28;20064;-61
2023/12/19 10:52:28;;;;;;;16.38;10.10;;;;;;;-0.31;100.00;98137.81;5001670;28;20584;-61
2023/12/19 10:55:06;;;;;;;15.90;9.80;;;;;;;-0.12;100.00;98124.38;5002542;28;20057;-62
2023/12/19 10:57:47;;;;;;;;;;;;;;;-0.04;100.00;98141.16;5003780;28;20056;-61
2023/12/19 11:00:21;;;;;;;19.05;9.95;;;;;;;0.10;100.00;98134.38;4997504;28;20540;-61
2023/12/19 11:02:58;;;;;;;15.43;9.10;;;;;;;0.24;100.00;98143.53;4992750;28;20045;-61
2023/12/19 11:05:39;;;;;;;15.13;8.43;;;;;;;0.30;100.00;98123.41;4994968;28;20038;-61
2023/12/19 11:08:13;;;;;;;13.48;8.27;;;;;;;0.33;100.00;98125.69;5001996;28;20050;-61
2023/12/19 11:10:40;;;;;;;12.70;7.97;;;;;;;0.40;100.00;98115.19;5002883;28;20104;-60
2023/12/19 11:13:10;;;;;;;14.35;8.48;;;;;;;0.46;100.00;98111.88;4998028;28;20675;-61
2023/12/19 11:15:42;;;;;;;12.23;7.50;;;;;;;0.38;100.00;98109.22;4995366;28;20042;-61
2023/12/19 11:18:42;;;;;;;14.32;7.32;;;;;;;0.46;100.00;98097.72;5000712;28;20042;-60
2023/12/19 11:21:17;;;;;;;10.70;6.65;;;;;;;0.62;100.00;98097.69;4998912;28;20108;-61